CPA225 ZGNN-VHHX
Flight info
| Callsign | CPA225 |
|---|---|
| Flight time | N/A |
| Altitude | 35100 |
| Route | 21N112E/N0487F370 DCT MIKE DCT CHALI DCT CH DCT GOLF DCT SL DCT D15 DCT OM13 DCT MM13 DCT RW |
| Aircraft | B772/H-SDE2E3FGHIJ5LORVWXY/LB1D1 |
Departure
| Time | 2026-05-08 10:39 |
|---|---|
| Airport | Nanning Wuxu International Airport (ZGNN) |
Arrival
| Time | N/A |
|---|---|
| Airport | Hong Kong International Airport Kai Tak (VHHX) |
| Time | Latitude | Longitude | Altitude | Speed | Heading |
|---|---|---|---|---|---|
| 2026-05-08 09:58 | 22.60407 | 108.17812 | 431 ft | 0 kts | 60° |
| 2026-05-08 10:29 | 22.60403 | 108.17802 | 431 ft | 2 kts | 60° |
| 2026-05-08 10:29 | 22.60395 | 108.17788 | 431 ft | 2 kts | 60° |
| 2026-05-08 10:29 | 22.60387 | 108.17774 | 431 ft | 2 kts | 41° |
| 2026-05-08 10:30 | 22.60374 | 108.17767 | 431 ft | 2 kts | 14° |
| 2026-05-08 10:30 | 22.60359 | 108.17765 | 431 ft | 2 kts | 349° |
| 2026-05-08 10:30 | 22.60346 | 108.17771 | 431 ft | 2 kts | 317° |
| 2026-05-08 10:30 | 22.60336 | 108.17783 | 431 ft | 2 kts | 311° |
| 2026-05-08 10:31 | 22.60330 | 108.17790 | 431 ft | 1 kts | 314° |
| 2026-05-08 10:31 | 22.60329 | 108.17791 | 431 ft | 0 kts | 314° |
| 2026-05-08 10:34 | 22.60334 | 108.17786 | 431 ft | 3 kts | 317° |
| 2026-05-08 10:34 | 22.60367 | 108.17753 | 431 ft | 9 kts | 317° |
| 2026-05-08 10:34 | 22.60421 | 108.17698 | 431 ft | 11 kts | 316° |
| 2026-05-08 10:34 | 22.60480 | 108.17638 | 431 ft | 11 kts | 316° |
| 2026-05-08 10:35 | 22.60541 | 108.17577 | 431 ft | 12 kts | 316° |
| 2026-05-08 10:35 | 22.60580 | 108.17497 | 431 ft | 13 kts | 247° |
| 2026-05-08 10:35 | 22.60511 | 108.17417 | 431 ft | 15 kts | 226° |
| 2026-05-08 10:35 | 22.60436 | 108.17332 | 431 ft | 16 kts | 226° |
| 2026-05-08 10:36 | 22.60356 | 108.17239 | 431 ft | 17 kts | 226° |
| 2026-05-08 10:36 | 22.60270 | 108.17142 | 431 ft | 18 kts | 227° |
| 2026-05-08 10:36 | 22.60180 | 108.17041 | 431 ft | 19 kts | 226° |
| 2026-05-08 10:36 | 22.60088 | 108.16931 | 431 ft | 19 kts | 227° |
| 2026-05-08 10:37 | 22.59991 | 108.16822 | 431 ft | 20 kts | 226° |
| 2026-05-08 10:37 | 22.59893 | 108.16710 | 431 ft | 20 kts | 227° |
| 2026-05-08 10:37 | 22.59802 | 108.16605 | 431 ft | 16 kts | 227° |
| 2026-05-08 10:37 | 22.59769 | 108.16522 | 431 ft | 12 kts | 300° |
| 2026-05-08 10:38 | 22.59835 | 108.16454 | 431 ft | 13 kts | 317° |
| 2026-05-08 10:38 | 22.59881 | 108.16444 | 431 ft | 6 kts | 35° |
| 2026-05-08 10:38 | 22.59916 | 108.16482 | 431 ft | 7 kts | 47° |
| 2026-05-08 10:38 | 22.59982 | 108.16558 | 431 ft | 34 kts | 46° |
| 2026-05-08 10:39 | 22.60314 | 108.16939 | 431 ft | 103 kts | 46° |
| 2026-05-08 10:39 | 22.60955 | 108.17675 | 433 ft | 159 kts | 48° |
| 2026-05-08 10:39 | 22.61736 | 108.18584 | 878 ft | 164 kts | 47° |
| 2026-05-08 10:39 | 22.62553 | 108.19464 | 1454 ft | 171 kts | 46° |
| 2026-05-08 10:40 | 22.63373 | 108.20429 | 1992 ft | 183 kts | 46° |
| 2026-05-08 10:40 | 22.64271 | 108.21478 | 2660 ft | 195 kts | 45° |
| 2026-05-08 10:40 | 22.65212 | 108.22560 | 3073 ft | 206 kts | 45° |
| 2026-05-08 10:40 | 22.66249 | 108.23750 | 3358 ft | 223 kts | 45° |
| 2026-05-08 10:41 | 22.67348 | 108.25012 | 3656 ft | 239 kts | 45° |
| 2026-05-08 10:41 | 22.67780 | 108.25509 | 3760 ft | 245 kts | 45° |
| 2026-05-08 10:42 | 22.68698 | 108.26564 | 4018 ft | 256 kts | 45° |
| 2026-05-08 10:42 | 22.69924 | 108.27974 | 4569 ft | 260 kts | 46° |
| 2026-05-08 10:43 | 22.71172 | 108.29411 | 5184 ft | 263 kts | 46° |
| 2026-05-08 10:43 | 22.72427 | 108.30855 | 5766 ft | 266 kts | 46° |
| 2026-05-08 10:43 | 22.73702 | 108.32322 | 6328 ft | 270 kts | 46° |
| 2026-05-08 10:43 | 22.74994 | 108.33809 | 6884 ft | 273 kts | 46° |
| 2026-05-08 10:44 | 22.76313 | 108.35329 | 7375 ft | 279 kts | 46° |
| 2026-05-08 10:44 | 22.77662 | 108.36882 | 7839 ft | 285 kts | 46° |
| 2026-05-08 10:44 | 22.78944 | 108.38528 | 8314 ft | 290 kts | 59° |
| 2026-05-08 10:44 | 22.79577 | 108.40593 | 8746 ft | 296 kts | 86° |
| 2026-05-08 10:45 | 22.79300 | 108.42797 | 9247 ft | 297 kts | 110° |
| 2026-05-08 10:45 | 22.78476 | 108.44859 | 9760 ft | 299 kts | 117° |
| 2026-05-08 10:45 | 22.77533 | 108.46870 | 10244 ft | 304 kts | 118° |
| 2026-05-08 10:45 | 22.76549 | 108.48938 | 10480 ft | 319 kts | 118° |
| 2026-05-08 10:46 | 22.75512 | 108.51124 | 10681 ft | 335 kts | 118° |
| 2026-05-08 10:46 | 22.74404 | 108.53425 | 10886 ft | 350 kts | 119° |
| 2026-05-08 10:46 | 22.73235 | 108.55795 | 11103 ft | 363 kts | 119° |
| 2026-05-08 10:46 | 22.72022 | 108.58257 | 11301 ft | 377 kts | 119° |
| 2026-05-08 10:47 | 22.70783 | 108.60774 | 11554 ft | 388 kts | 118° |
| 2026-05-08 10:47 | 22.69503 | 108.63377 | 12000 ft | 392 kts | 118° |
| 2026-05-08 10:47 | 22.68209 | 108.66008 | 12567 ft | 394 kts | 119° |
| 2026-05-08 10:47 | 22.66938 | 108.68639 | 13116 ft | 397 kts | 116° |
| 2026-05-08 10:48 | 22.65994 | 108.71486 | 13648 ft | 402 kts | 105° |
| 2026-05-08 10:48 | 22.65562 | 108.74506 | 14198 ft | 408 kts | 94° |
| 2026-05-08 10:48 | 22.65660 | 108.77539 | 14812 ft | 411 kts | 84° |
| 2026-05-08 10:48 | 22.65997 | 108.80616 | 15472 ft | 413 kts | 83° |
| 2026-05-08 10:49 | 22.66348 | 108.83701 | 16129 ft | 416 kts | 83° |
| 2026-05-08 10:49 | 22.66703 | 108.86838 | 16740 ft | 420 kts | 83° |
| 2026-05-08 10:49 | 22.67052 | 108.89948 | 17378 ft | 422 kts | 82° |
| 2026-05-08 10:49 | 22.67405 | 108.93129 | 18027 ft | 425 kts | 82° |
| 2026-05-08 10:50 | 22.67757 | 108.96295 | 18556 ft | 430 kts | 82° |
| 2026-05-08 10:50 | 22.68115 | 108.99543 | 18968 ft | 438 kts | 82° |
| 2026-05-08 10:50 | 22.68476 | 109.02822 | 19508 ft | 443 kts | 82° |
| 2026-05-08 10:50 | 22.68839 | 109.06138 | 20019 ft | 447 kts | 82° |
| 2026-05-08 10:51 | 22.69205 | 109.09486 | 20540 ft | 451 kts | 82° |
| 2026-05-08 10:51 | 22.69578 | 109.12897 | 21057 ft | 456 kts | 82° |
| 2026-05-08 10:51 | 22.69985 | 109.16296 | 21521 ft | 461 kts | 81° |
| 2026-05-08 10:51 | 22.70408 | 109.19730 | 21955 ft | 467 kts | 81° |
| 2026-05-08 10:52 | 22.70835 | 109.23207 | 22446 ft | 471 kts | 81° |
| 2026-05-08 10:52 | 22.71268 | 109.26755 | 22934 ft | 475 kts | 81° |
| 2026-05-08 10:52 | 22.71699 | 109.30286 | 23445 ft | 479 kts | 81° |
| 2026-05-08 10:52 | 22.72131 | 109.33845 | 23988 ft | 481 kts | 82° |
| 2026-05-08 10:53 | 22.72567 | 109.37449 | 24511 ft | 484 kts | 82° |
| 2026-05-08 10:53 | 22.73006 | 109.41087 | 24989 ft | 488 kts | 82° |
| 2026-05-08 10:53 | 22.73447 | 109.44751 | 25510 ft | 491 kts | 82° |
| 2026-05-08 10:53 | 22.73885 | 109.48391 | 25994 ft | 493 kts | 82° |
| 2026-05-08 10:54 | 22.74329 | 109.52100 | 26422 ft | 498 kts | 82° |
| 2026-05-08 10:54 | 22.74771 | 109.55795 | 26842 ft | 502 kts | 82° |
| 2026-05-08 10:54 | 22.75217 | 109.59533 | 27290 ft | 505 kts | 82° |
| 2026-05-08 10:54 | 22.75670 | 109.63330 | 27759 ft | 507 kts | 83° |
| 2026-05-08 10:55 | 22.76120 | 109.67117 | 28220 ft | 509 kts | 83° |
| 2026-05-08 10:55 | 22.76575 | 109.70955 | 28589 ft | 513 kts | 83° |
| 2026-05-08 10:55 | 22.77030 | 109.74796 | 28915 ft | 518 kts | 83° |
| 2026-05-08 10:55 | 22.77484 | 109.78645 | 29289 ft | 521 kts | 83° |
| 2026-05-08 10:56 | 22.77944 | 109.82549 | 29754 ft | 522 kts | 83° |
| 2026-05-08 10:56 | 22.78400 | 109.86418 | 30325 ft | 521 kts | 83° |
| 2026-05-08 10:56 | 22.78851 | 109.90264 | 30918 ft | 519 kts | 82° |
| 2026-05-08 10:56 | 22.79310 | 109.94180 | 31462 ft | 518 kts | 82° |
| 2026-05-08 10:57 | 22.79756 | 109.98005 | 31868 ft | 519 kts | 82° |
| 2026-05-08 10:57 | 22.80214 | 110.01926 | 32215 ft | 522 kts | 82° |
| 2026-05-08 10:57 | 22.81118 | 110.09705 | 33079 ft | 524 kts | 82° |
| 2026-05-08 10:58 | 22.81570 | 110.13599 | 33686 ft | 522 kts | 82° |
| 2026-05-08 10:58 | 22.82022 | 110.17510 | 34347 ft | 519 kts | 81° |
| 2026-05-08 10:58 | 22.82465 | 110.21357 | 34950 ft | 517 kts | 81° |
| 2026-05-08 10:58 | 22.82908 | 110.25202 | 35077 ft | 520 kts | 81° |
| 2026-05-08 10:59 | 22.83793 | 110.32917 | 35080 ft | 515 kts | 81° |
| 2026-05-08 10:59 | 22.84674 | 110.40620 | 35081 ft | 516 kts | 81° |
| 2026-05-08 11:00 | 22.85552 | 110.48340 | 35078 ft | 515 kts | 81° |
| 2026-05-08 11:00 | 22.86421 | 110.56011 | 35081 ft | 516 kts | 81° |
| 2026-05-08 11:01 | 22.87295 | 110.63763 | 35090 ft | 518 kts | 81° |
| 2026-05-08 11:01 | 22.88166 | 110.71523 | 35085 ft | 516 kts | 82° |
| 2026-05-08 11:02 | 22.89462 | 110.83122 | 35087 ft | 517 kts | 82° |
| 2026-05-08 11:03 | 22.90319 | 110.90842 | 35081 ft | 516 kts | 82° |
| 2026-05-08 11:03 | 22.91170 | 110.98541 | 35074 ft | 516 kts | 82° |
| 2026-05-08 11:04 | 22.92016 | 111.06233 | 35071 ft | 515 kts | 82° |
| 2026-05-08 11:04 | 22.92865 | 111.13984 | 35074 ft | 517 kts | 82° |
| 2026-05-08 11:05 | 22.93705 | 111.21685 | 35077 ft | 515 kts | 82° |
| 2026-05-08 11:05 | 22.94541 | 111.29383 | 35080 ft | 517 kts | 82° |
| 2026-05-08 11:06 | 22.95373 | 111.37083 | 35078 ft | 517 kts | 82° |
| 2026-05-08 11:06 | 22.96205 | 111.44818 | 35080 ft | 518 kts | 82° |
| 2026-05-08 11:07 | 22.97036 | 111.52584 | 35087 ft | 518 kts | 82° |
| 2026-05-08 11:07 | 22.97865 | 111.60365 | 35087 ft | 519 kts | 82° |
| 2026-05-08 11:08 | 22.98686 | 111.68102 | 35076 ft | 518 kts | 82° |
| 2026-05-08 11:08 | 22.99503 | 111.75839 | 35078 ft | 518 kts | 82° |
| 2026-05-08 11:09 | 23.00323 | 111.83649 | 35082 ft | 518 kts | 82° |
| 2026-05-08 11:09 | 23.01133 | 111.91396 | 35091 ft | 518 kts | 82° |
| 2026-05-08 11:10 | 23.01947 | 111.99216 | 35097 ft | 520 kts | 82° |
| 2026-05-08 11:10 | 23.02748 | 112.06962 | 35096 ft | 518 kts | 82° |
| 2026-05-08 11:11 | 23.03547 | 112.14706 | 35099 ft | 519 kts | 82° |
| 2026-05-08 11:11 | 23.04345 | 112.22492 | 35096 ft | 520 kts | 82° |
| 2026-05-08 11:12 | 23.05140 | 112.30282 | 35094 ft | 519 kts | 82° |
| 2026-05-08 11:12 | 23.05928 | 112.38040 | 35082 ft | 520 kts | 82° |
| 2026-05-08 11:13 | 23.06713 | 112.45821 | 35073 ft | 518 kts | 83° |
| 2026-05-08 11:13 | 23.06642 | 112.53622 | 35071 ft | 520 kts | 93° |
| 2026-05-08 11:14 | 23.06135 | 112.61415 | 35067 ft | 522 kts | 93° |
| 2026-05-08 11:14 | 23.05613 | 112.69231 | 35052 ft | 519 kts | 94° |
| 2026-05-08 11:15 | 23.05081 | 112.77097 | 35049 ft | 522 kts | 94° |
| 2026-05-08 11:15 | 23.04545 | 112.84938 | 35044 ft | 520 kts | 94° |
| 2026-05-08 11:16 | 23.04007 | 112.92752 | 35051 ft | 522 kts | 94° |
| 2026-05-08 11:16 | 23.03463 | 113.00581 | 35050 ft | 521 kts | 94° |
| 2026-05-08 11:17 | 23.02913 | 113.08431 | 35052 ft | 521 kts | 94° |
| 2026-05-08 11:17 | 23.01345 | 113.16067 | 35046 ft | 520 kts | 112° |
| 2026-05-08 11:18 | 22.97850 | 113.22832 | 35047 ft | 514 kts | 130° |
| 2026-05-08 11:18 | 22.92928 | 113.28411 | 35054 ft | 513 kts | 139° |
| 2026-05-08 11:19 | 22.87765 | 113.33737 | 35052 ft | 512 kts | 139° |
| 2026-05-08 11:19 | 22.82605 | 113.39035 | 35046 ft | 512 kts | 139° |
| 2026-05-08 11:20 | 22.77426 | 113.44339 | 35046 ft | 512 kts | 139° |
| 2026-05-08 11:20 | 22.72263 | 113.49618 | 35045 ft | 512 kts | 139° |
| 2026-05-08 11:21 | 22.67095 | 113.54893 | 35045 ft | 512 kts | 139° |
| 2026-05-08 11:21 | 22.61912 | 113.60175 | 35044 ft | 511 kts | 138° |
| 2026-05-08 11:22 | 22.56690 | 113.65492 | 35044 ft | 512 kts | 139° |
| 2026-05-08 11:22 | 22.51557 | 113.70714 | 35036 ft | 508 kts | 138° |
| 2026-05-08 11:23 | 22.46289 | 113.75842 | 35032 ft | 507 kts | 146° |
| 2026-05-08 11:23 | 22.40087 | 113.79452 | 35033 ft | 502 kts | 163° |
| 2026-05-08 11:24 | 22.33336 | 113.80893 | 35031 ft | 493 kts | 181° |
| 2026-05-08 11:24 | 22.26574 | 113.80125 | 35035 ft | 488 kts | 198° |
| 2026-05-08 11:25 | 22.20349 | 113.77405 | 35037 ft | 479 kts | 210° |
| 2026-05-08 11:25 | 22.14382 | 113.74143 | 35036 ft | 479 kts | 211° |
| 2026-05-08 11:26 | 22.08471 | 113.70836 | 35036 ft | 480 kts | 211° |
| 2026-05-08 11:26 | 22.02541 | 113.67481 | 35042 ft | 483 kts | 211° |
| 2026-05-08 11:27 | 21.96619 | 113.64112 | 35035 ft | 481 kts | 211° |
| 2026-05-08 11:27 | 21.90682 | 113.60727 | 35034 ft | 482 kts | 211° |
| 2026-05-08 11:28 | 21.84748 | 113.57340 | 35028 ft | 481 kts | 211° |
| 2026-05-08 11:28 | 21.78866 | 113.53983 | 35026 ft | 480 kts | 211° |
| 2026-05-08 11:29 | 21.72952 | 113.50610 | 35026 ft | 482 kts | 211° |
| 2026-05-08 11:29 | 21.66995 | 113.47214 | 35026 ft | 482 kts | 211° |
| 2026-05-08 11:30 | 21.61110 | 113.43862 | 35027 ft | 482 kts | 211° |
| 2026-05-08 11:30 | 21.58130 | 113.42166 | 34825 ft | 475 kts | 211° |
| 2026-05-08 11:30 | 21.55221 | 113.40511 | 33865 ft | 478 kts | 211° |
| 2026-05-08 11:30 | 21.52283 | 113.38839 | 32736 ft | 483 kts | 211° |
| 2026-05-08 11:31 | 21.49292 | 113.37138 | 31884 ft | 484 kts | 210° |
| 2026-05-08 11:31 | 21.46336 | 113.35458 | 31045 ft | 484 kts | 210° |
| 2026-05-08 11:31 | 21.43343 | 113.33759 | 30342 ft | 481 kts | 210° |
| 2026-05-08 11:31 | 21.40429 | 113.32105 | 29892 ft | 474 kts | 210° |
| 2026-05-08 11:32 | 21.37508 | 113.30448 | 29385 ft | 468 kts | 210° |
| 2026-05-08 11:32 | 21.34668 | 113.28838 | 28853 ft | 464 kts | 210° |
| 2026-05-08 11:32 | 21.31799 | 113.27211 | 28321 ft | 460 kts | 210° |
| 2026-05-08 11:32 | 21.29003 | 113.25628 | 27804 ft | 456 kts | 209° |
| 2026-05-08 11:33 | 21.26074 | 113.24320 | 27609 ft | 456 kts | 199° |
| 2026-05-08 11:33 | 21.22937 | 113.23540 | 27609 ft | 469 kts | 189° |
| 2026-05-08 11:33 | 21.19682 | 113.23315 | 27594 ft | 467 kts | 180° |
| 2026-05-08 11:33 | 21.16478 | 113.23617 | 27154 ft | 463 kts | 171° |
| 2026-05-08 11:34 | 21.13327 | 113.24446 | 26395 ft | 467 kts | 162° |
| 2026-05-08 11:34 | 21.10314 | 113.25822 | 25699 ft | 467 kts | 152° |
| 2026-05-08 11:34 | 21.07603 | 113.27679 | 25214 ft | 463 kts | 142° |
| 2026-05-08 11:34 | 21.05218 | 113.29963 | 24765 ft | 457 kts | 133° |
| 2026-05-08 11:35 | 21.03244 | 113.32555 | 24299 ft | 452 kts | 124° |
| 2026-05-08 11:35 | 21.01663 | 113.35435 | 23734 ft | 450 kts | 115° |
| 2026-05-08 11:35 | 21.00519 | 113.38532 | 23160 ft | 447 kts | 106° |
| 2026-05-08 11:35 | 20.99836 | 113.41779 | 22619 ft | 444 kts | 97° |
| 2026-05-08 11:36 | 20.99631 | 113.44999 | 22140 ft | 439 kts | 89° |
| 2026-05-08 11:36 | 20.99879 | 113.48231 | 21639 ft | 435 kts | 80° |
| 2026-05-08 11:36 | 21.00575 | 113.51382 | 21128 ft | 430 kts | 71° |
| 2026-05-08 11:36 | 21.01666 | 113.54302 | 20629 ft | 426 kts | 63° |
| 2026-05-08 11:37 | 21.03139 | 113.57018 | 20128 ft | 421 kts | 54° |
| 2026-05-08 11:37 | 21.04968 | 113.59480 | 19622 ft | 417 kts | 46° |
| 2026-05-08 11:37 | 21.07037 | 113.61570 | 19112 ft | 413 kts | 38° |
| 2026-05-08 11:37 | 21.09392 | 113.63346 | 18608 ft | 408 kts | 30° |
| 2026-05-08 11:38 | 21.11884 | 113.64699 | 18101 ft | 404 kts | 20° |
| 2026-05-08 11:38 | 21.14588 | 113.65585 | 17579 ft | 400 kts | 12° |
| 2026-05-08 11:38 | 21.17304 | 113.66225 | 17093 ft | 397 kts | 11° |
| 2026-05-08 11:38 | 21.19959 | 113.66836 | 16629 ft | 393 kts | 11° |
| 2026-05-08 11:39 | 21.22657 | 113.67459 | 16150 ft | 390 kts | 11° |
| 2026-05-08 11:39 | 21.25292 | 113.68066 | 15676 ft | 387 kts | 11° |
| 2026-05-08 11:39 | 21.27895 | 113.68667 | 15190 ft | 384 kts | 11° |
| 2026-05-08 11:39 | 21.30533 | 113.69276 | 14704 ft | 382 kts | 11° |
| 2026-05-08 11:40 | 21.33112 | 113.69872 | 14221 ft | 379 kts | 11° |
| 2026-05-08 11:40 | 21.35671 | 113.70462 | 13749 ft | 376 kts | 11° |
| 2026-05-08 11:40 | 21.38217 | 113.71050 | 13271 ft | 373 kts | 11° |
| 2026-05-08 11:40 | 21.40737 | 113.71632 | 12803 ft | 370 kts | 11° |
| 2026-05-08 11:41 | 21.43250 | 113.72213 | 12305 ft | 368 kts | 11° |
| 2026-05-08 11:41 | 21.45759 | 113.72794 | 11811 ft | 366 kts | 11° |
| 2026-05-08 11:41 | 21.48252 | 113.73370 | 11347 ft | 363 kts | 11° |
| 2026-05-08 11:41 | 21.50737 | 113.73945 | 10859 ft | 361 kts | 11° |
| 2026-05-08 11:42 | 21.53165 | 113.74507 | 10382 ft | 359 kts | 12° |
| 2026-05-08 11:42 | 21.55609 | 113.75073 | 9914 ft | 357 kts | 12° |
| 2026-05-08 11:42 | 21.58009 | 113.75629 | 9694 ft | 346 kts | 12° |
| 2026-05-08 11:42 | 21.60328 | 113.76166 | 9610 ft | 332 kts | 12° |
| 2026-05-08 11:43 | 21.62556 | 113.76683 | 9576 ft | 318 kts | 12° |
| 2026-05-08 11:43 | 21.64666 | 113.77173 | 9570 ft | 303 kts | 11° |
| 2026-05-08 11:43 | 21.66685 | 113.77642 | 9563 ft | 290 kts | 11° |
| 2026-05-08 11:43 | 21.68631 | 113.78095 | 9466 ft | 281 kts | 11° |
| 2026-05-08 11:44 | 21.70539 | 113.78537 | 9197 ft | 279 kts | 11° |
| 2026-05-08 11:44 | 21.72438 | 113.78977 | 8886 ft | 279 kts | 12° |
| 2026-05-08 11:44 | 21.74330 | 113.79417 | 8600 ft | 278 kts | 11° |
| 2026-05-08 11:44 | 21.76204 | 113.79851 | 8343 ft | 275 kts | 12° |
| 2026-05-08 11:45 | 21.78077 | 113.80286 | 8053 ft | 275 kts | 12° |
| 2026-05-08 11:45 | 21.79964 | 113.80725 | 7775 ft | 273 kts | 12° |
| 2026-05-08 11:45 | 21.81810 | 113.81154 | 7535 ft | 270 kts | 12° |
| 2026-05-08 11:45 | 21.83644 | 113.81580 | 7244 ft | 270 kts | 12° |
| 2026-05-08 11:46 | 21.85484 | 113.82008 | 6972 ft | 269 kts | 12° |
| 2026-05-08 11:46 | 21.87317 | 113.82434 | 6710 ft | 267 kts | 12° |
| 2026-05-08 11:46 | 21.89119 | 113.82853 | 6415 ft | 267 kts | 13° |
| 2026-05-08 11:46 | 21.90941 | 113.83276 | 6147 ft | 265 kts | 13° |
| 2026-05-08 11:47 | 21.92746 | 113.83697 | 6004 ft | 261 kts | 13° |
| 2026-05-08 11:47 | 21.94536 | 113.84114 | 5990 ft | 267 kts | 13° |
| 2026-05-08 11:47 | 21.96361 | 113.84539 | 5986 ft | 267 kts | 13° |
| 2026-05-08 11:47 | 21.98195 | 113.84966 | 5990 ft | 268 kts | 13° |
| 2026-05-08 11:48 | 21.99993 | 113.85385 | 5977 ft | 266 kts | 13° |
| 2026-05-08 11:48 | 22.01820 | 113.85812 | 5986 ft | 266 kts | 13° |
| 2026-05-08 11:48 | 22.03628 | 113.86233 | 5985 ft | 265 kts | 12° |
| 2026-05-08 11:48 | 22.05421 | 113.86652 | 5979 ft | 265 kts | 12° |
| 2026-05-08 11:49 | 22.07240 | 113.87076 | 5987 ft | 265 kts | 12° |
| 2026-05-08 11:49 | 22.09046 | 113.87498 | 5993 ft | 265 kts | 12° |
| 2026-05-08 11:49 | 22.10865 | 113.87922 | 5990 ft | 265 kts | 12° |
| 2026-05-08 11:49 | 22.12675 | 113.88345 | 5982 ft | 264 kts | 13° |
| 2026-05-08 11:50 | 22.14494 | 113.88770 | 5985 ft | 264 kts | 13° |
| 2026-05-08 11:50 | 22.16329 | 113.89199 | 5987 ft | 264 kts | 13° |
| 2026-05-08 11:50 | 22.18107 | 113.89614 | 5984 ft | 252 kts | 13° |
| 2026-05-08 11:50 | 22.19769 | 113.90003 | 5982 ft | 240 kts | 13° |
| 2026-05-08 11:51 | 22.21377 | 113.90381 | 5939 ft | 233 kts | 13° |
| 2026-05-08 11:51 | 22.22996 | 113.90620 | 5650 ft | 233 kts | 360° |
| 2026-05-08 11:51 | 22.24575 | 113.90587 | 5657 ft | 218 kts | 0° |
| 2026-05-08 11:51 | 22.26058 | 113.90597 | 5557 ft | 208 kts | 1° |
| 2026-05-08 11:52 | 22.27494 | 113.90637 | 5293 ft | 205 kts | 2° |
| 2026-05-08 11:52 | 22.28902 | 113.90854 | 4964 ft | 203 kts | 24° |
| 2026-05-08 11:52 | 22.30051 | 113.91686 | 4694 ft | 198 kts | 40° |
| 2026-05-08 11:52 | 22.31051 | 113.92683 | 4535 ft | 189 kts | 50° |
| 2026-05-08 11:53 | 22.31576 | 113.93892 | 4495 ft | 175 kts | 76° |
| 2026-05-08 11:53 | 22.31748 | 113.95177 | 4485 ft | 168 kts | 83° |
| 2026-05-08 11:53 | 22.31840 | 113.96438 | 4367 ft | 171 kts | 85° |
| 2026-05-08 11:53 | 22.31924 | 113.97721 | 4099 ft | 173 kts | 85° |
| 2026-05-08 11:54 | 22.32010 | 113.99023 | 3836 ft | 174 kts | 85° |
| 2026-05-08 11:54 | 22.32095 | 114.00316 | 3592 ft | 173 kts | 85° |
| 2026-05-08 11:54 | 22.32181 | 114.01613 | 3355 ft | 173 kts | 85° |
| 2026-05-08 11:54 | 22.32266 | 114.02903 | 3119 ft | 172 kts | 84° |
| 2026-05-08 11:55 | 22.32352 | 114.04198 | 2887 ft | 171 kts | 84° |
| 2026-05-08 11:55 | 22.32436 | 114.05469 | 2652 ft | 171 kts | 84° |
| 2026-05-08 11:55 | 22.32520 | 114.06749 | 2418 ft | 171 kts | 85° |
| 2026-05-08 11:55 | 22.32604 | 114.08024 | 2170 ft | 163 kts | 85° |
| 2026-05-08 11:56 | 22.32678 | 114.09161 | 1974 ft | 145 kts | 85° |
| 2026-05-08 11:56 | 22.32711 | 114.09665 | 1883 ft | 141 kts | 85° |